Time;durP1;ratioP1;P1;durP2;ratioP2;P2;SDS_P1;SDS_P2;PMS_P1;PMS_P2;Temp;Humidity;BMP_temperature;BMP_pressure;BME280_temperature;BME280_humidity;BME280_pressure;Samples;Min_cycle;Max_cycle;Signal;HPM_P1;HPM_P2
2023/04/29 00:02:01;;;;;;;12.30;6.30;;;9.20;99.90;;;;;;5054456;28;20217;-84
2023/04/29 00:04:27;;;;;;;5.47;3.53;;;9.20;99.90;;;;;;5037615;28;20759;-83
2023/04/29 00:06:53;;;;;;;8.30;4.77;;;9.10;99.90;;;;;;5055189;28;20233;-83
2023/04/29 00:09:20;;;;;;;11.30;6.13;;;9.00;99.90;;;;;;5053630;27;20611;-82
2023/04/29 00:11:46;;;;;;;12.60;3.53;;;9.00;99.90;;;;;;5038612;28;20287;-83
2023/04/29 00:14:12;;;;;;;9.73;5.80;;;8.90;99.90;;;;;;5053407;28;20324;-86
2023/04/29 00:16:38;;;;;;;6.07;5.13;;;8.90;99.90;;;;;;5050597;27;20677;-83
2023/04/29 00:19:04;;;;;;;10.27;6.73;;;8.90;99.90;;;;;;5050109;28;20221;-82
2023/04/29 00:21:30;;;;;;;13.73;6.47;;;9.00;99.90;;;;;;5052566;28;20221;-83
2023/04/29 00:23:56;;;;;;;10.07;6.33;;;9.00;99.90;;;;;;5052003;28;20221;-82
2023/04/29 00:26:22;;;;;;;10.47;5.23;;;9.10;99.90;;;;;;5054291;28;20221;-84
2023/04/29 00:28:48;;;;;;;17.67;5.80;;;9.00;99.90;;;;;;5054460;28;20241;-82
2023/04/29 00:31:14;;;;;;;19.83;6.07;;;9.00;99.90;;;;;;5070502;27;20218;-85
2023/04/29 00:33:40;;;;;;;5.20;4.80;;;9.00;99.90;;;;;;5052266;28;20217;-83
2023/04/29 00:36:06;;;;;;;7.13;5.70;;;9.00;99.90;;;;;;5049404;28;20678;-83
2023/04/29 00:38:32;;;;;;;6.27;4.73;;;9.10;99.90;;;;;;5042665;28;20255;-85
2023/04/29 00:40:57;;;;;;;7.83;5.40;;;9.10;99.90;;;;;;5049885;28;20216;-84
2023/04/29 00:43:23;;;;;;;5.53;4.33;;;9.20;99.90;;;;;;5050124;28;20224;-86
2023/04/29 00:45:49;;;;;;;10.77;6.10;;;9.20;99.90;;;;;;5053710;28;20227;-83
2023/04/29 00:48:15;;;;;;;10.17;7.03;;;9.20;99.90;;;;;;5056023;28;20298;-83
2023/04/29 00:50:42;;;;;;;8.43;5.43;;;9.20;99.90;;;;;;5053000;28;20190;-83
2023/04/29 00:53:11;;;;;;;10.27;5.10;;;9.30;99.90;;;;;;5045055;28;20217;-83
2023/04/29 00:55:38;;;;;;;6.80;4.07;;;9.30;99.90;;;;;;5053927;27;20208;-83
2023/04/29 00:58:03;;;;;;;7.40;5.87;;;9.30;99.90;;;;;;5055241;28;20227;-84
2023/04/29 01:00:29;;;;;;;20.60;8.87;;;9.30;99.90;;;;;;5053684;28;20224;-84
2023/04/29 01:02:56;;;;;;;11.23;5.90;;;9.30;99.90;;;;;;5054875;28;20647;-82
2023/04/29 01:05:25;;;;;;;8.63;6.63;;;9.30;99.90;;;;;;5055808;28;20225;-84
2023/04/29 01:07:59;;;;;;;8.87;6.77;;;9.30;99.90;;;;;;5061739;28;20543;-82
2023/04/29 01:10:37;;;;;;;14.80;8.77;;;9.30;99.90;;;;;;5053619;27;20225;-82
2023/04/29 01:13:17;;;;;;;9.63;7.93;;;9.40;99.90;;;;;;5061234;28;20241;-83
2023/04/29 01:15:57;;;;;;;8.40;7.20;;;9.40;99.90;;;;;;5053600;27;20313;-82
2023/04/29 01:18:29;;;;;;;10.77;6.47;;;9.40;99.90;;;;;;5054349;28;20319;-82
2023/04/29 01:20:56;;;;;;;10.10;6.83;;;9.40;99.90;;;;;;5070541;28;20780;-84
2023/04/29 01:23:26;;;;;;;12.17;6.90;;;9.40;99.90;;;;;;5052931;27;20224;-83
2023/04/29 01:25:52;;;;;;;15.03;7.30;;;9.40;99.90;;;;;;5054058;28;20245;-84
2023/04/29 01:28:46;;;;;;;8.47;5.03;;;9.40;99.90;;;;;;5053009;28;20305;-83
2023/04/29 01:31:42;;;;;;;12.47;5.17;;;9.40;99.90;;;;;;5046108;27;20224;-83
2023/04/29 01:34:34;;;;;;;11.00;6.43;;;9.40;99.90;;;;;;5032828;28;20248;-83
2023/04/29 01:37:26;;;;;;;6.83;5.23;;;9.40;99.90;;;;;;5056686;27;20221;-83
2023/04/29 01:40:35;;;;;;;8.10;3.10;;;9.40;99.90;;;;;;5055721;28;20214;-85
2023/04/29 01:43:03;;;;;;;5.87;5.37;;;9.40;99.90;;;;;;5054846;27;20270;-82
2023/04/29 01:45:31;;;;;;;16.87;4.33;;;9.40;99.90;;;;;;5054992;28;20218;-82
2023/04/29 01:47:58;;;;;;;7.80;4.63;;;9.40;99.90;;;;;;5055492;28;20247;-82
2023/04/29 01:50:24;;;;;;;8.93;5.33;;;9.40;99.90;;;;;;5055706;28;20213;-82
2023/04/29 01:52:50;;;;;;;10.57;7.17;;;9.40;99.90;;;;;;5053081;28;20298;-85
2023/04/29 01:55:16;;;;;;;7.50;4.73;;;9.40;99.90;;;;;;5052464;28;20657;-82
2023/04/29 01:57:43;;;;;;;18.30;8.87;;;9.40;99.90;;;;;;5055435;28;20609;-84
2023/04/29 02:00:10;;;;;;;6.73;6.03;;;9.40;99.90;;;;;;5053088;28;20189;-82
2023/04/29 02:02:36;;;;;;;14.07;5.07;;;9.30;99.90;;;;;;5053602;28;20196;-82
2023/04/29 02:05:02;;;;;;;7.57;6.73;;;9.30;99.90;;;;;;5053535;28;20303;-82
2023/04/29 02:07:28;;;;;;;9.07;5.67;;;9.30;99.90;;;;;;5046905;28;20315;-82
2023/04/29 02:09:53;;;;;;;8.73;5.50;;;9.30;99.90;;;;;;5057825;28;20628;-82
2023/04/29 02:12:19;;;;;;;7.10;4.73;;;9.30;99.90;;;;;;5055240;27;20245;-85
2023/04/29 02:14:46;;;;;;;3.83;3.10;;;9.30;99.90;;;;;;5059226;28;20598;-82
2023/04/29 02:17:13;;;;;;;5.60;3.97;;;9.30;99.90;;;;;;5056885;28;20229;-83
2023/04/29 02:19:39;;;;;;;15.37;4.37;;;9.40;99.90;;;;;;5057328;27;20270;-83
2023/04/29 02:22:05;;;;;;;3.97;3.33;;;9.40;99.90;;;;;;5055378;28;20675;-84
2023/04/29 02:24:30;;;;;;;2.67;2.47;;;9.40;99.90;;;;;;5058226;28;20248;-83
2023/04/29 02:26:57;;;;;;;6.10;4.23;;;9.40;99.90;;;;;;5056589;28;20721;-82
2023/04/29 02:29:25;;;;;;;9.83;5.23;;;9.40;99.90;;;;;;5057656;28;20726;-82
2023/04/29 02:31:51;;;;;;;5.03;2.47;;;9.40;99.90;;;;;;5055184;28;20249;-82
2023/04/29 02:34:16;;;;;;;3.37;2.30;;;9.40;99.90;;;;;;5058378;28;20729;-83
2023/04/29 02:36:42;;;;;;;5.03;4.17;;;9.50;99.90;;;;;;5055102;28;20665;-83
2023/04/29 02:39:08;;;;;;;5.67;4.10;;;9.50;99.90;;;;;;5054428;28;20289;-85
2023/04/29 02:41:34;;;;;;;7.90;5.20;;;9.50;99.90;;;;;;5054846;28;20186;-82
2023/04/29 02:43:59;;;;;;;9.30;5.30;;;9.50;99.90;;;;;;5056399;27;20253;-82
2023/04/29 02:46:25;;;;;;;6.33;4.10;;;9.50;99.90;;;;;;5047700;28;20241;-82
2023/04/29 02:48:51;;;;;;;7.47;4.40;;;9.50;99.90;;;;;;5054467;28;20233;-82
2023/04/29 02:51:17;;;;;;;7.10;3.40;;;9.50;99.90;;;;;;5040447;27;20201;-85
2023/04/29 02:53:43;;;;;;;8.37;4.30;;;9.50;99.90;;;;;;5056518;28;20197;-82
2023/04/29 02:56:08;;;;;;;8.73;4.77;;;9.50;99.90;;;;;;5056742;28;20960;-82
2023/04/29 02:58:34;;;;;;;7.13;5.37;;;9.50;99.90;;;;;;5055823;27;20217;-83
2023/04/29 03:01:00;;;;;;;11.97;5.30;;;9.50;99.90;;;;;;5057488;27;20241;-84
2023/04/29 03:03:26;;;;;;;4.40;3.20;;;9.50;99.90;;;;;;5054131;28;20214;-83
2023/04/29 03:05:52;;;;;;;4.70;3.80;;;9.50;99.90;;;;;;5055720;28;20197;-82
2023/04/29 03:08:17;;;;;;;9.53;5.27;;;9.50;99.90;;;;;;5056071;28;20944;-84
2023/04/29 03:10:43;;;;;;;4.33;4.03;;;9.50;99.90;;;;;;5054934;28;20221;-82
2023/04/29 03:13:09;;;;;;;5.33;3.40;;;9.50;99.90;;;;;;5055704;28;20250;-84
2023/04/29 03:15:35;;;;;;;3.57;2.97;;;9.50;99.90;;;;;;5056703;28;20229;-83
2023/04/29 03:18:03;;;;;;;7.43;2.63;;;9.50;99.90;;;;;;5056510;28;20980;-81
2023/04/29 03:20:29;;;;;;;3.50;2.43;;;9.50;99.90;;;;;;5055435;28;20437;-82
2023/04/29 03:22:55;;;;;;;6.17;1.53;;;9.50;99.90;;;;;;5054377;28;20220;-82
2023/04/29 03:25:20;;;;;;;5.50;2.67;;;9.50;99.90;;;;;;5055590;28;20229;-81
2023/04/29 03:27:46;;;;;;;2.53;2.33;;;9.40;99.90;;;;;;5057273;27;20246;-85
2023/04/29 03:30:12;;;;;;;6.70;3.90;;;9.40;99.90;;;;;;5055922;28;20247;-82
2023/04/29 03:32:37;;;;;;;8.40;2.53;;;9.30;99.90;;;;;;5057288;28;20235;-82
2023/04/29 03:35:04;;;;;;;2.93;2.67;;;9.30;99.90;;;;;;5055152;28;20926;-83
2023/04/29 03:37:29;;;;;;;4.17;2.87;;;9.30;99.90;;;;;;5055385;28;20242;-82
2023/04/29 03:39:55;;;;;;;3.77;3.33;;;9.30;99.90;;;;;;5056843;28;20244;-85
2023/04/29 03:42:21;;;;;;;6.73;3.80;;;9.30;99.90;;;;;;5054906;27;20231;-82
2023/04/29 03:44:47;;;;;;;4.07;2.60;;;9.30;99.90;;;;;;5054836;28;20263;-83
2023/04/29 03:47:12;;;;;;;4.43;3.53;;;9.30;99.90;;;;;;5046914;28;20691;-83
2023/04/29 03:49:38;;;;;;;1.73;1.23;;;9.30;99.90;;;;;;5055164;28;20424;-83
2023/04/29 03:52:05;;;;;;;4.00;3.70;;;9.30;99.90;;;;;;5053899;27;20317;-84
2023/04/29 03:54:31;;;;;;;2.57;2.33;;;9.30;99.90;;;;;;5053326;28;20812;-84
2023/04/29 03:56:56;;;;;;;5.80;3.27;;;9.30;99.90;;;;;;5055827;28;20280;-84
2023/04/29 03:59:22;;;;;;;3.53;3.13;;;9.30;99.90;;;;;;5056340;27;20312;-82
2023/04/29 04:01:48;;;;;;;3.70;3.33;;;9.30;99.90;;;;;;5061150;28;20574;-82
2023/04/29 04:04:14;;;;;;;3.07;1.93;;;9.30;99.90;;;;;;5053980;28;20218;-84
2023/04/29 04:06:40;;;;;;;1.40;1.37;;;9.30;99.90;;;;;;5055408;28;20245;-82
2023/04/29 04:09:06;;;;;;;2.67;1.90;;;9.20;99.90;;;;;;5056790;28;20221;-81
2023/04/29 04:11:32;;;;;;;7.63;2.03;;;9.30;99.90;;;;;;5046312;28;20189;-85
2023/04/29 04:13:58;;;;;;;2.53;2.20;;;9.30;99.90;;;;;;5051844;28;20772;-82
2023/04/29 04:16:24;;;;;;;2.63;2.43;;;9.30;99.90;;;;;;5050436;28;20636;-83
2023/04/29 04:18:49;;;;;;;1.53;1.50;;;9.20;99.90;;;;;;5052158;28;20231;-83
2023/04/29 04:21:15;;;;;;;3.30;3.10;;;9.10;99.90;;;;;;5052321;27;20712;-84
2023/04/29 04:23:41;;;;;;;3.77;2.50;;;9.00;99.90;;;;;;5055004;28;20221;-82
2023/04/29 04:26:07;;;;;;;4.63;2.23;;;9.00;99.90;;;;;;5052829;28;20217;-83
2023/04/29 04:28:33;;;;;;;7.70;2.03;;;8.90;99.90;;;;;;5050672;28;20597;-85
2023/04/29 04:30:58;;;;;;;2.13;1.90;;;8.90;99.90;;;;;;5052824;28;20759;-82
2023/04/29 04:33:25;;;;;;;9.27;2.27;;;8.90;99.90;;;;;;5052298;27;20213;-82
2023/04/29 04:35:50;;;;;;;2.00;1.50;;;8.80;99.90;;;;;;5052479;28;20686;-83
2023/04/29 04:38:16;;;;;;;3.17;1.73;;;8.80;99.90;;;;;;5054193;28;20244;-82
2023/04/29 04:40:43;;;;;;;4.17;3.17;;;8.80;99.90;;;;;;5053005;27;20643;-83
2023/04/29 04:43:08;;;;;;;9.50;2.90;;;8.70;99.90;;;;;;5055733;27;20213;-84
2023/04/29 04:45:35;;;;;;;3.00;2.77;;;8.80;99.90;;;;;;5052839;28;20272;-82
2023/04/29 04:48:01;;;;;;;2.53;2.33;;;8.80;99.90;;;;;;5050708;28;20210;-85
2023/04/29 04:50:28;;;;;;;4.40;2.10;;;8.90;99.90;;;;;;5052597;28;20236;-82
2023/04/29 04:52:55;;;;;;;3.53;2.10;;;8.90;99.90;;;;;;5051660;27;20225;-82
2023/04/29 04:55:21;;;;;;;3.77;2.07;;;8.90;99.90;;;;;;5049688;28;20260;-82
2023/04/29 04:57:47;;;;;;;4.17;1.00;;;8.90;99.90;;;;;;5051344;28;20223;-83
2023/04/29 05:00:13;;;;;;;3.13;2.37;;;8.90;99.90;;;;;;5054060;27;20547;-84
2023/04/29 05:02:38;;;;;;;1.80;1.70;;;9.00;99.90;;;;;;5054951;28;20193;-82
2023/04/29 05:05:05;;;;;;;2.00;1.83;;;9.00;99.90;;;;;;5053091;28;21052;-82
2023/04/29 05:07:32;;;;;;;2.27;2.03;;;9.10;99.90;;;;;;5053970;28;20226;-84
2023/04/29 05:09:57;;;;;;;3.10;2.60;;;9.10;99.90;;;;;;5053451;28;20213;-83
2023/04/29 05:12:29;;;;;;;3.70;2.30;;;9.10;99.90;;;;;;5053237;27;20283;-84
2023/04/29 05:14:55;;;;;;;3.13;1.30;;;9.30;99.90;;;;;;5054362;28;20206;-82
2023/04/29 05:17:21;;;;;;;2.40;2.13;;;9.80;99.90;;;;;;5050920;28;20590;-82
2023/04/29 05:19:47;;;;;;;4.57;2.10;;;10.10;99.90;;;;;;5052087;28;20224;-84
2023/04/29 05:22:12;;;;;;;3.03;2.60;;;10.50;99.90;;;;;;5051646;28;20225;-83
2023/04/29 05:24:41;;;;;;;2.13;2.03;;;11.20;99.90;;;;;;5052111;28;20222;-83
2023/04/29 05:27:06;;;;;;;4.40;2.33;;;11.60;99.90;;;;;;5052047;27;20190;-82
2023/04/29 05:29:32;;;;;;;2.87;2.47;;;11.60;99.90;;;;;;5051823;28;20185;-82
2023/04/29 05:31:58;;;;;;;9.77;2.50;;;11.60;99.90;;;;;;5052262;27;20222;-83
2023/04/29 05:34:24;;;;;;;8.53;3.37;;;12.00;99.90;;;;;;5052393;28;20244;-82
2023/04/29 05:36:50;;;;;;;2.10;1.40;;;12.20;99.90;;;;;;5052036;27;20213;-82
2023/04/29 05:39:16;;;;;;;5.20;3.10;;;12.60;99.90;;;;;;5053537;28;20197;-83
2023/04/29 05:41:42;;;;;;;1.97;1.27;;;13.30;99.90;;;;;;5046076;28;20720;-82
2023/04/29 05:44:08;;;;;;;3.50;1.40;;;13.30;99.90;;;;;;5058093;27;20214;-83
2023/04/29 05:46:34;;;;;;;3.33;1.63;;;13.10;99.90;;;;;;5056901;28;20225;-84
2023/04/29 05:49:00;;;;;;;3.10;1.67;;;13.20;99.90;;;;;;5055634;28;20237;-82
2023/04/29 05:51:27;;;;;;;2.50;1.87;;;12.80;99.90;;;;;;5045881;28;20240;-83
2023/04/29 05:53:53;;;;;;;1.93;1.27;;;14.10;99.90;;;;;;5056932;28;20230;-83
2023/04/29 05:56:19;;;;;;;5.80;1.70;;;13.70;99.90;;;;;;5055529;28;20225;-82
2023/04/29 05:58:45;;;;;;;3.93;1.67;;;13.90;99.90;;;;;;5054653;28;20225;-82
2023/04/29 06:01:11;;;;;;;7.57;2.90;;;14.60;99.90;;;;;;5050319;28;20225;-82
2023/04/29 06:03:38;;;;;;;3.33;1.47;;;14.00;99.90;;;;;;5046081;28;20221;-83
2023/04/29 06:06:04;;;;;;;1.47;1.37;;;13.30;99.90;;;;;;5054370;27;20305;-84
2023/04/29 06:08:29;;;;;;;2.57;2.00;;;14.20;99.90;;;;;;5054501;28;20221;-84
2023/04/29 06:10:55;;;;;;;3.53;2.23;;;15.20;99.90;;;;;;5055127;27;20281;-83
2023/04/29 06:13:21;;;;;;;6.97;1.93;;;15.90;99.90;;;;;;5054876;28;20238;-82
2023/04/29 06:15:49;;;;;;;1.90;1.33;;;16.90;99.90;;;;;;5045885;28;20225;-86
2023/04/29 06:18:15;;;;;;;4.57;2.57;;;17.40;99.90;;;;;;5057797;27;20204;-84
2023/04/29 06:20:41;;;;;;;2.80;1.43;;;16.10;99.90;;;;;;5057389;28;20186;-84
2023/04/29 06:23:07;;;;;;;2.97;2.73;;;14.60;99.90;;;;;;5054776;28;20318;-84
2023/04/29 06:25:33;;;;;;;2.40;1.47;;;14.00;99.90;;;;;;5053044;28;20229;-84
2023/04/29 06:27:59;;;;;;;2.87;1.83;;;15.60;99.90;;;;;;5043842;28;20229;-84
2023/04/29 06:30:25;;;;;;;8.47;1.60;;;16.30;99.90;;;;;;5055646;28;20221;-83
2023/04/29 06:32:52;;;;;;;3.10;1.57;;;15.10;99.90;;;;;;5055137;28;20191;-87
2023/04/29 06:35:18;;;;;;;4.90;2.20;;;15.40;99.90;;;;;;5057543;28;20217;-83
2023/04/29 06:37:44;;;;;;;3.20;2.10;;;14.80;99.90;;;;;;5055621;28;20291;-83
2023/04/29 06:40:10;;;;;;;2.37;2.13;;;14.50;99.90;;;;;;5037633;28;20237;-84
2023/04/29 06:42:36;;;;;;;4.63;1.60;;;14.50;99.90;;;;;;5056139;28;20221;-84
2023/04/29 06:45:02;;;;;;;6.13;1.80;;;14.60;99.90;;;;;;5057291;28;20665;-83
2023/04/29 06:47:28;;;;;;;1.70;1.40;;;15.10;99.90;;;;;;5053657;28;20264;-84
2023/04/29 06:49:53;;;;;;;4.90;2.00;;;15.60;99.90;;;;;;5056098;28;20896;-84
2023/04/29 06:52:19;;;;;;;2.00;1.70;;;17.00;99.90;;;;;;5052074;28;20225;-83
2023/04/29 06:54:45;;;;;;;2.00;1.70;;;17.60;99.90;;;;;;5059714;28;20236;-82
2023/04/29 06:57:11;;;;;;;3.63;2.17;;;16.10;99.90;;;;;;5054253;28;20247;-83
2023/04/29 06:59:36;;;;;;;2.50;1.87;;;16.30;99.90;;;;;;5050988;28;20192;-85
2023/04/29 07:02:02;;;;;;;3.23;1.83;;;15.80;99.90;;;;;;5054776;28;20590;-84
2023/04/29 07:04:29;;;;;;;1.93;1.40;;;15.70;99.90;;;;;;5053717;28;20220;-84
2023/04/29 07:06:55;;;;;;;4.10;2.00;;;14.60;99.90;;;;;;5053181;28;20609;-84
2023/04/29 07:09:22;;;;;;;2.97;1.80;;;14.90;99.90;;;;;;5052862;28;20214;-84
2023/04/29 07:11:48;;;;;;;4.10;2.53;;;14.40;99.90;;;;;;5056226;28;20198;-83
2023/04/29 07:14:14;;;;;;;3.73;1.50;;;14.60;99.90;;;;;;5053890;28;20234;-84
2023/04/29 07:16:40;;;;;;;4.87;2.00;;;14.70;99.90;;;;;;5054998;28;20282;-84
2023/04/29 07:19:06;;;;;;;4.90;1.77;;;16.50;99.90;;;;;;5053939;28;20221;-83
2023/04/29 07:21:32;;;;;;;5.80;2.33;;;18.70;99.90;;;;;;5054905;27;20713;-86
2023/04/29 07:24:01;;;;;;;7.63;2.00;;;18.40;99.90;;;;;;5051169;28;20614;-86
2023/04/29 07:26:26;;;;;;;2.60;1.83;;;18.50;99.90;;;;;;5048681;28;20217;-87
2023/04/29 07:28:53;;;;;;;5.00;2.40;;;17.50;99.90;;;;;;5051290;28;20244;-87
2023/04/29 07:31:19;;;;;;;4.33;1.87;;;18.70;99.90;;;;;;5049144;28;20221;-87
2023/04/29 07:33:46;;;;;;;7.30;2.77;;;18.50;99.90;;;;;;5050328;28;20570;-87
2023/04/29 07:36:11;;;;;;;3.63;2.43;;;18.20;99.90;;;;;;5047114;28;20687;-88
2023/04/29 07:38:37;;;;;;;5.43;2.37;;;19.70;99.90;;;;;;5050928;28;20335;-86
2023/04/29 07:41:03;;;;;;;5.53;2.47;;;19.30;99.90;;;;;;5052785;28;20222;-88
2023/04/29 07:43:29;;;;;;;7.83;2.23;;;19.40;99.90;;;;;;5052827;28;20768;-86
2023/04/29 07:45:55;;;;;;;4.13;2.00;;;17.70;99.90;;;;;;5053839;28;20219;-85
2023/04/29 07:48:21;;;;;;;3.23;2.53;;;17.20;99.90;;;;;;5056692;28;20217;-86
2023/04/29 07:50:47;;;;;;;6.97;2.20;;;16.90;99.90;;;;;;5059783;28;20603;-84
2023/04/29 07:53:14;;;;;;;6.67;2.93;;;15.30;99.90;;;;;;5054680;27;20684;-83
2023/04/29 07:55:40;;;;;;;5.53;2.00;;;16.90;99.90;;;;;;5055817;27;21136;-85
2023/04/29 07:58:06;;;;;;;3.07;2.77;;;16.30;99.90;;;;;;5036570;28;20222;-84
2023/04/29 08:00:32;;;;;;;2.53;1.37;;;16.60;99.90;;;;;;5056232;27;20691;-84
2023/04/29 08:02:58;;;;;;;5.27;1.63;;;15.60;99.90;;;;;;5055406;28;20190;-86
2023/04/29 08:05:24;;;;;;;4.20;2.87;;;14.90;99.90;;;;;;5050048;28;20286;-82
2023/04/29 08:07:50;;;;;;;8.20;2.67;;;15.30;99.90;;;;;;5050602;28;20238;-83
2023/04/29 08:10:16;;;;;;;3.67;2.43;;;17.40;99.90;;;;;;5049650;27;20592;-84
2023/04/29 08:12:48;;;;;;;5.37;2.40;;;18.10;99.90;;;;;;5058881;28;21046;-82
2023/04/29 08:15:14;;;;;;;3.40;2.43;;;17.10;99.90;;;;;;5047781;28;20186;-82
2023/04/29 08:17:40;;;;;;;6.73;2.50;;;18.00;99.90;;;;;;5049909;28;20205;-85
2023/04/29 08:20:07;;;;;;;4.30;3.00;;;17.50;99.90;;;;;;5050899;28;20581;-83
2023/04/29 08:22:33;;;;;;;6.03;2.50;;;16.30;99.90;;;;;;5047402;28;20205;-83
2023/04/29 08:24:59;;;;;;;8.73;3.13;;;16.90;99.90;;;;;;5048452;28;20220;-86
2023/04/29 08:27:25;;;;;;;4.27;2.70;;;18.30;99.90;;;;;;5051111;27;21012;-84
2023/04/29 08:29:51;;;;;;;4.40;2.87;;;19.00;99.90;;;;;;5052742;28;20655;-82
2023/04/29 08:32:17;;;;;;;6.17;2.53;;;18.50;99.90;;;;;;5050914;28;20228;-83
2023/04/29 08:34:43;;;;;;;7.27;2.73;;;18.60;99.90;;;;;;5051513;28;20229;-82
2023/04/29 08:37:09;;;;;;;2.33;2.13;;;17.50;99.90;;;;;;5048075;27;20873;-83
2023/04/29 08:39:35;;;;;;;8.03;2.67;;;16.70;99.90;;;;;;5047509;28;20723;-83
2023/04/29 08:42:08;;;;;;;6.30;3.37;;;16.70;99.90;;;;;;5045461;28;20193;-85
2023/04/29 08:44:34;;;;;;;3.87;2.50;;;15.10;99.90;;;;;;5044372;28;20225;-84
2023/04/29 08:47:01;;;;;;;4.67;2.30;;;15.40;99.90;;;;;;5047981;27;20619;-85
2023/04/29 08:49:32;;;;;;;2.83;2.23;;;16.20;99.90;;;;;;5047531;28;20298;-83
2023/04/29 08:51:58;;;;;;;5.90;2.23;;;15.20;99.90;;;;;;5049884;28;20298;-83
2023/04/29 08:54:25;;;;;;;8.67;2.43;;;15.80;99.90;;;;;;5050146;28;20226;-84
2023/04/29 08:56:51;;;;;;;3.13;2.23;;;15.20;99.90;;;;;;5044543;28;20520;-84
2023/04/29 08:59:18;;;;;;;3.77;2.30;;;14.60;99.90;;;;;;5047781;28;20252;-84
2023/04/29 09:01:50;;;;;;;3.10;2.00;;;15.20;99.90;;;;;;5047396;27;20214;-85
2023/04/29 09:04:46;;;;;;;1.60;1.50;;;14.30;99.90;;;;;;5044778;28;20213;-85
2023/04/29 09:07:12;;;;;;;4.00;2.40;;;14.00;99.90;;;;;;5047385;28;20328;-85
2023/04/29 09:09:41;;;;;;;3.73;1.60;;;14.00;99.90;;;;;;5052125;28;20267;-84
2023/04/29 09:12:08;;;;;;;2.03;1.40;;;14.30;99.90;;;;;;5049736;28;20189;-84
2023/04/29 09:14:35;;;;;;;2.73;1.80;;;14.90;99.90;;;;;;5052087;28;20229;-84
2023/04/29 09:17:00;;;;;;;2.40;2.13;;;15.60;99.90;;;;;;5050016;28;20236;-84
2023/04/29 09:19:30;;;;;;;2.50;2.03;;;16.30;99.90;;;;;;5054175;28;20213;-86
2023/04/29 09:21:56;;;;;;;4.23;1.90;;;16.20;99.90;;;;;;5051903;28;20728;-87
2023/04/29 09:24:26;;;;;;;3.03;1.73;;;15.90;99.90;;;;;;5044881;27;20271;-85
2023/04/29 09:26:53;;;;;;;5.70;2.33;;;16.40;99.90;;;;;;5044339;28;20190;-88
2023/04/29 09:29:19;;;;;;;2.97;1.93;;;16.10;99.90;;;;;;5053644;28;20240;-85
2023/04/29 09:31:45;;;;;;;2.13;1.73;;;15.60;99.90;;;;;;5051732;28;20229;-88
2023/04/29 09:34:11;;;;;;;2.23;1.90;;;15.40;99.90;;;;;;5054224;28;20228;-87
2023/04/29 09:36:40;;;;;;;3.83;1.77;;;16.10;99.90;;;;;;5056638;27;20213;-86
2023/04/29 09:39:10;;;;;;;2.20;1.90;;;15.70;99.90;;;;;;5056101;28;20193;-84
2023/04/29 09:41:39;;;;;;;5.50;2.10;;;16.30;99.90;;;;;;5070689;28;20216;-84
2023/04/29 09:44:06;;;;;;;5.40;1.73;;;15.70;99.90;;;;;;5056443;28;20225;-87
2023/04/29 09:46:37;;;;;;;2.57;1.60;;;14.90;99.90;;;;;;5054865;28;20562;-86
2023/04/29 09:49:03;;;;;;;2.90;0.97;;;14.50;99.90;;;;;;5052283;28;20235;-88
2023/04/29 09:51:33;;;;;;;3.10;1.30;;;14.30;99.90;;;;;;5051670;28;20216;-86
2023/04/29 09:54:01;;;;;;;1.37;1.20;;;14.50;99.90;;;;;;5055800;28;20204;-84
2023/04/29 09:56:29;;;;;;;2.70;1.50;;;15.10;99.90;;;;;;5053952;28;20225;-85
2023/04/29 09:58:56;;;;;;;1.37;1.10;;;15.50;99.90;;;;;;5051692;28;20214;-86
2023/04/29 10:01:25;;;;;;;1.53;1.43;;;16.30;99.90;;;;;;5055165;27;20218;-85
2023/04/29 10:03:53;;;;;;;3.00;1.73;;;15.90;99.90;;;;;;5053863;28;20213;-83
2023/04/29 10:06:20;;;;;;;1.60;1.50;;;15.10;99.90;;;;;;5054659;27;20239;-85
2023/04/29 10:08:48;;;;;;;3.03;2.23;;;16.00;99.90;;;;;;5060793;28;20221;-86
2023/04/29 10:11:15;;;;;;;1.33;1.10;;;17.30;99.90;;;;;;5052581;28;20208;-85
2023/04/29 10:13:42;;;;;;;1.30;1.20;;;18.40;99.90;;;;;;5051092;28;20274;-85
2023/04/29 10:16:11;;;;;;;1.73;1.40;;;18.40;99.90;;;;;;5053033;28;20225;-85
2023/04/29 10:18:40;;;;;;;3.73;1.30;;;17.60;99.90;;;;;;5055801;27;20589;-85
2023/04/29 10:21:10;;;;;;;3.23;2.03;;;17.10;99.90;;;;;;5089043;28;20193;-86
2023/04/29 10:23:36;;;;;;;2.80;1.57;;;16.10;99.90;;;;;;5054462;28;20191;-85
2023/04/29 10:26:02;;;;;;;2.50;1.17;;;16.70;99.90;;;;;;5051954;28;20222;-86
2023/04/29 10:28:32;;;;;;;2.43;1.70;;;15.60;99.90;;;;;;5055456;28;20817;-89
2023/04/29 10:31:04;;;;;;;1.83;1.27;;;14.90;99.90;;;;;;5060780;27;20334;-89
2023/04/29 10:33:32;;;;;;;2.33;1.23;;;14.40;99.90;;;;;;5075090;27;20225;-89
2023/04/29 10:35:59;;;;;;;0.97;0.97;;;14.80;99.90;;;;;;5060078;28;20198;-90
2023/04/29 10:38:28;;;;;;;1.10;0.90;;;16.10;99.90;;;;;;5057339;28;20304;-89
2023/04/29 10:40:57;;;;;;;1.17;1.07;;;15.90;99.90;;;;;;5058760;27;20224;-90
2023/04/29 10:43:26;;;;;;;2.80;1.57;;;16.90;99.90;;;;;;5058354;28;20218;-90
2023/04/29 10:46:25;;;;;;;1.83;1.20;;;15.60;99.90;;;;;;5066006;28;20281;-90
2023/04/29 10:49:02;;;;;;;1.80;1.30;;;15.30;99.90;;;;;;5058947;27;20801;-90
2023/04/29 10:51:38;;;;;;;1.30;1.00;;;15.80;99.90;;;;;;5057982;27;20222;-90
2023/04/29 10:54:08;;;;;;;0.73;0.73;;;14.90;99.90;;;;;;5060329;28;20181;-90
2023/04/29 10:56:41;;;;;;;1.47;1.20;;;14.30;99.90;;;;;;5065160;28;20239;-86
2023/04/29 10:59:12;;;;;;;2.17;1.43;;;13.90;99.90;;;;;;5056352;27;20222;-87
2023/04/29 11:01:52;;;;;;;1.47;0.90;;;14.70;99.90;;;;;;5055011;28;20300;-87
2023/04/29 11:04:21;;;;;;;2.90;1.10;;;14.50;99.90;;;;;;5064185;28;20223;-86
2023/04/29 11:06:52;;;;;;;0.47;0.47;;;14.60;99.90;;;;;;5053494;28;20228;-86
2023/04/29 11:09:19;;;;;;;3.57;1.30;;;14.20;99.90;;;;;;5047059;27;20217;-85
2023/04/29 11:11:46;;;;;;;1.57;1.43;;;14.50;99.90;;;;;;5056627;28;20182;-86
2023/04/29 11:14:13;;;;;;;2.10;1.30;;;14.90;99.90;;;;;;5052246;28;20246;-85
2023/04/29 11:16:52;;;;;;;6.27;1.47;;;14.40;99.90;;;;;;5055030;28;20228;-85
2023/04/29 11:19:19;;;;;;;0.90;0.80;;;14.70;99.90;;;;;;5053691;28;20986;-85
2023/04/29 11:21:46;;;;;;;3.30;1.87;;;15.00;99.90;;;;;;5056331;28;20222;-86
2023/04/29 11:24:14;;;;;;;1.60;1.27;;;14.80;99.90;;;;;;5056258;28;20702;-88
2023/04/29 11:26:43;;;;;;;2.93;1.40;;;15.50;99.90;;;;;;5048279;28;20190;-86
2023/04/29 11:29:11;;;;;;;2.50;1.20;;;15.60;99.90;;;;;;5073013;28;20315;-86
2023/04/29 11:31:40;;;;;;;6.07;1.30;;;16.10;99.90;;;;;;5047807;28;20220;-86
2023/04/29 11:34:06;;;;;;;3.67;1.20;;;15.90;99.90;;;;;;5057035;27;20225;-86
2023/04/29 11:36:32;;;;;;;1.20;1.03;;;15.90;99.90;;;;;;5056085;28;20224;-87
2023/04/29 11:39:00;;;;;;;0.80;0.80;;;16.20;99.90;;;;;;5054128;28;20245;-86
2023/04/29 11:41:26;;;;;;;1.17;0.90;;;16.20;99.90;;;;;;5053216;28;20331;-86
2023/04/29 11:44:00;;;;;;;0.97;0.97;;;16.60;99.90;;;;;;5053014;28;20672;-87
2023/04/29 11:46:29;;;;;;;1.40;1.00;;;17.00;99.90;;;;;;5057598;27;20221;-87
2023/04/29 11:48:58;;;;;;;2.03;1.20;;;17.40;99.90;;;;;;5054961;28;20234;-87
2023/04/29 11:51:24;;;;;;;3.57;1.40;;;17.80;99.90;;;;;;5055838;27;20296;-86
2023/04/29 11:53:51;;;;;;;1.00;0.90;;;17.40;99.90;;;;;;5056953;28;20276;-86
2023/04/29 11:56:23;;;;;;;2.10;0.93;;;17.20;99.90;;;;;;5054164;28;20232;-86
2023/04/29 11:58:48;;;;;;;1.37;1.27;;;17.00;99.90;;;;;;5057347;28;20232;-85
2023/04/29 12:01:14;;;;;;;0.70;0.70;;;16.70;99.90;;;;;;5052462;28;20224;-86
2023/04/29 12:03:43;;;;;;;0.67;0.67;;;15.40;99.90;;;;;;5056433;27;20668;-87
2023/04/29 12:06:08;;;;;;;1.73;0.90;;;15.00;99.90;;;;;;5054130;27;20480;-86
2023/04/29 12:08:34;;;;;;;0.80;0.80;;;15.30;99.90;;;;;;5057354;28;20797;-87
2023/04/29 12:11:00;;;;;;;1.17;1.00;;;15.30;99.90;;;;;;5044121;28;20695;-89
2023/04/29 12:13:28;;;;;;;0.83;0.83;;;14.80;99.90;;;;;;5052344;28;20726;-86
2023/04/29 12:15:55;;;;;;;3.33;0.93;;;14.80;99.90;;;;;;5054772;28;20287;-86
2023/04/29 12:18:22;;;;;;;1.07;0.97;;;14.80;99.90;;;;;;5053356;28;20268;-86
2023/04/29 12:20:50;;;;;;;1.03;1.00;;;14.60;99.90;;;;;;5056022;28;20632;-86
2023/04/29 12:23:25;;;;;;;1.57;1.10;;;14.70;99.90;;;;;;5055717;27;20225;-86
2023/04/29 12:25:54;;;;;;;0.90;0.90;;;14.40;99.90;;;;;;5056447;27;20209;-86
2023/04/29 12:28:21;;;;;;;4.57;1.03;;;14.70;99.90;;;;;;5057531;27;20279;-86
2023/04/29 12:30:48;;;;;;;2.23;0.97;;;14.60;99.90;;;;;;5056896;27;20217;-85
2023/04/29 12:33:22;;;;;;;2.40;1.30;;;14.50;99.90;;;;;;5055524;27;20194;-87
2023/04/29 12:35:51;;;;;;;0.93;0.60;;;14.60;99.90;;;;;;5056849;28;20192;-85
2023/04/29 12:38:29;;;;;;;2.27;0.93;;;14.30;99.90;;;;;;5056228;27;20228;-87
2023/04/29 12:41:00;;;;;;;4.93;1.67;;;14.20;99.90;;;;;;5052326;27;20374;-86
2023/04/29 12:43:30;;;;;;;1.63;1.17;;;14.40;99.90;;;;;;5055002;28;20217;-86
2023/04/29 12:46:06;;;;;;;1.30;1.10;;;14.50;99.90;;;;;;5052166;28;20566;-87
2023/04/29 12:48:36;;;;;;;1.50;1.07;;;14.40;99.90;;;;;;5059537;28;20240;-84
2023/04/29 12:51:02;;;;;;;1.20;1.13;;;14.10;99.90;;;;;;5052965;28;20189;-85
2023/04/29 12:53:31;;;;;;;2.10;1.57;;;14.00;99.90;;;;;;5052600;28;20221;-86